createdAt,value
2022-07-27T00:01:50.838Z,21.65
2022-07-27T00:04:19.915Z,21.96
2022-07-27T00:06:48.206Z,21.95
2022-07-27T00:09:15.828Z,21.73
2022-07-27T00:11:43.521Z,21.74
2022-07-27T00:14:10.904Z,21.78
2022-07-27T00:16:38.422Z,21.79
2022-07-27T00:19:08.982Z,21.80
2022-07-27T00:21:37.675Z,21.90
2022-07-27T00:24:12.495Z,21.87
2022-07-27T00:26:39.715Z,21.77
2022-07-27T00:29:07.013Z,21.94
2022-07-27T00:31:34.614Z,21.77
2022-07-27T00:34:01.890Z,21.73
2022-07-27T00:36:29.085Z,21.95
2022-07-27T00:38:56.533Z,21.87
2022-07-27T00:41:23.743Z,22.11
2022-07-27T00:43:51.850Z,22.28
2022-07-27T00:46:19.447Z,21.94
2022-07-27T00:48:46.784Z,22.22
2022-07-27T00:51:14.589Z,21.94
2022-07-27T00:53:42.322Z,21.96
2022-07-27T00:56:09.497Z,21.77
2022-07-27T00:58:37.132Z,21.88
2022-07-27T01:01:04.821Z,21.68
2022-07-27T01:03:32.015Z,21.65
2022-07-27T01:05:59.219Z,21.24
2022-07-27T01:08:28.569Z,21.33
2022-07-27T01:10:58.056Z,21.58
2022-07-27T01:13:29.368Z,21.31
2022-07-27T01:15:56.905Z,21.35
2022-07-27T01:18:27.208Z,21.60
2022-07-27T01:20:54.718Z,21.49
2022-07-27T01:23:23.303Z,20.83
2022-07-27T01:25:50.513Z,21.24
2022-07-27T01:28:17.718Z,21.16
2022-07-27T01:30:45.260Z,21.16
2022-07-27T01:33:12.439Z,20.92
2022-07-27T01:35:39.967Z,20.71
2022-07-27T01:38:08.343Z,21.00
2022-07-27T01:40:36.976Z,20.83
2022-07-27T01:43:05.370Z,20.69
2022-07-27T01:45:32.871Z,20.22
2022-07-27T01:48:00.066Z,20.37
2022-07-27T01:50:27.348Z,20.77
2022-07-27T01:52:54.809Z,20.83
2022-07-27T01:55:22.066Z,20.79
2022-07-27T01:57:49.477Z,20.90
2022-07-27T02:00:16.993Z,20.84
2022-07-27T02:02:44.464Z,20.86
2022-07-27T02:05:12.262Z,21.01
2022-07-27T02:07:40.235Z,21.17
2022-07-27T02:10:08.363Z,21.23
2022-07-27T02:12:35.572Z,21.45
2022-07-27T02:15:23.375Z,20.94
2022-07-27T02:17:53.155Z,20.85
2022-07-27T02:20:21.344Z,20.73
2022-07-27T02:22:48.561Z,20.92
2022-07-27T02:25:16.596Z,20.80
2022-07-27T02:27:43.835Z,20.47
2022-07-27T02:30:11.581Z,20.65
2022-07-27T02:32:40.587Z,20.15
2022-07-27T02:35:19.542Z,20.37
2022-07-27T02:37:48.651Z,20.21
2022-07-27T02:40:19.550Z,20.24
2022-07-27T02:42:47.145Z,20.47
2022-07-27T02:45:15.136Z,20.33
2022-07-27T02:47:42.704Z,20.27
2022-07-27T02:50:10.077Z,20.05
2022-07-27T02:52:37.789Z,20.14
2022-07-27T02:55:05.500Z,20.41
2022-07-27T02:57:36.050Z,20.62
2022-07-27T03:00:05.515Z,20.62
2022-07-27T03:02:32.719Z,20.72
2022-07-27T03:04:59.910Z,20.70
2022-07-27T03:07:27.410Z,21.14
2022-07-27T03:09:54.592Z,20.99
2022-07-27T03:12:21.798Z,21.16
2022-07-27T03:14:49.272Z,20.99
2022-07-27T03:17:16.594Z,20.82
2022-07-27T03:19:43.765Z,20.98
2022-07-27T03:22:11.293Z,20.86
2022-07-27T03:24:38.565Z,21.26
2022-07-27T03:27:05.763Z,21.12
2022-07-27T03:29:35.547Z,21.18
2022-07-27T03:32:02.755Z,20.81
2022-07-27T03:34:29.950Z,20.85
2022-07-27T03:36:57.426Z,21.08
2022-07-27T03:39:24.659Z,20.96
2022-07-27T03:41:51.931Z,21.28
2022-07-27T03:44:19.401Z,21.16
2022-07-27T03:46:49.013Z,21.16
2022-07-27T03:49:16.429Z,21.16
2022-07-27T03:51:44.229Z,20.83
2022-07-27T03:54:11.464Z,21.31
2022-07-27T03:56:38.731Z,20.82
2022-07-27T03:59:06.231Z,20.97
2022-07-27T04:01:33.479Z,21.10
2022-07-27T04:04:01.056Z,21.14
2022-07-27T04:06:28.594Z,21.08
2022-07-27T04:08:59.630Z,21.37
2022-07-27T04:11:37.815Z,21.34
2022-07-27T04:14:12.800Z,21.23
2022-07-27T04:16:40.601Z,21.31
2022-07-27T04:19:08.291Z,21.53
2022-07-27T04:21:35.645Z,21.38
2022-07-27T04:24:03.138Z,21.82
2022-07-27T04:26:30.395Z,22.01
2022-07-27T04:28:57.595Z,22.08
2022-07-27T04:31:25.157Z,21.80
2022-07-27T04:33:52.409Z,21.76
2022-07-27T04:36:19.613Z,22.17
2022-07-27T04:38:47.089Z,22.11
2022-07-27T04:41:14.271Z,22.02
2022-07-27T04:43:41.467Z,22.02
2022-07-27T04:46:14.751Z,22.39
2022-07-27T04:48:49.076Z,22.18
2022-07-27T04:51:17.482Z,22.57
2022-07-27T04:53:53.588Z,22.58
2022-07-27T04:56:26.675Z,22.64
2022-07-27T04:58:54.386Z,22.65
2022-07-27T05:01:23.117Z,22.66
2022-07-27T05:03:50.823Z,22.90
2022-07-27T05:06:18.249Z,22.73
2022-07-27T05:08:45.442Z,22.81
2022-07-27T05:11:12.917Z,23.01
2022-07-27T05:13:40.661Z,22.83
2022-07-27T05:16:09.366Z,23.09
2022-07-27T05:18:37.722Z,23.29
2022-07-27T05:21:05.243Z,23.29
2022-07-27T05:23:32.571Z,23.18
2022-07-27T05:26:00.074Z,23.17
2022-07-27T05:28:28.161Z,23.04
2022-07-27T05:30:55.382Z,23.24
2022-07-27T05:33:22.866Z,22.95
2022-07-27T05:35:50.059Z,23.11
2022-07-27T05:38:17.218Z,23.33
2022-07-27T05:40:45.507Z,23.43
2022-07-27T05:43:12.743Z,23.46
2022-07-27T05:45:40.130Z,23.95
2022-07-27T05:48:07.653Z,24.13
2022-07-27T05:50:34.842Z,23.98
2022-07-27T05:53:02.074Z,24.04
2022-07-27T05:55:29.550Z,24.03
2022-07-27T05:57:56.752Z,24.20
2022-07-27T06:00:23.993Z,24.24
2022-07-27T06:02:51.842Z,24.43
2022-07-27T06:05:19.045Z,24.52
2022-07-27T06:08:03.704Z,24.73
2022-07-27T06:10:32.437Z,24.84
2022-07-27T06:13:00.168Z,24.86
2022-07-27T06:15:27.374Z,24.74
2022-07-27T06:17:54.836Z,25.00
2022-07-27T06:20:23.124Z,25.00
2022-07-27T06:22:54.588Z,25.13
2022-07-27T06:25:22.878Z,25.30
2022-07-27T06:28:01.351Z,25.22
2022-07-27T06:30:29.033Z,25.27
2022-07-27T06:32:57.510Z,25.45
2022-07-27T06:35:26.485Z,25.40
2022-07-27T06:37:54.906Z,25.55
2022-07-27T06:40:22.268Z,25.60
2022-07-27T06:42:49.459Z,25.58
2022-07-27T06:45:17.456Z,25.47
2022-07-27T06:47:48.990Z,25.80
2022-07-27T06:50:18.480Z,25.47
2022-07-27T06:52:46.009Z,25.70
2022-07-27T06:55:13.838Z,26.05
2022-07-27T06:57:43.009Z,26.29
2022-07-27T07:00:10.896Z,26.50
2022-07-27T07:02:38.625Z,26.66
2022-07-27T07:05:06.308Z,26.59
2022-07-27T07:07:33.526Z,26.10
2022-07-27T07:10:01.029Z,26.64
2022-07-27T07:12:28.757Z,27.01
2022-07-27T07:14:56.003Z,26.84
2022-07-27T07:17:23.219Z,27.13
2022-07-27T07:19:50.703Z,27.00
2022-07-27T07:22:17.898Z,27.10
2022-07-27T07:24:45.083Z,27.08
2022-07-27T07:27:12.552Z,27.05
2022-07-27T07:29:39.736Z,27.01
2022-07-27T07:32:07.050Z,26.97
2022-07-27T07:34:34.542Z,27.04
2022-07-27T07:37:01.817Z,27.10
2022-07-27T07:39:31.319Z,27.25
2022-07-27T07:41:59.200Z,27.24
2022-07-27T07:44:26.414Z,27.10
2022-07-27T07:46:53.672Z,27.25
2022-07-27T07:49:39.428Z,27.32
2022-07-27T07:52:08.011Z,26.99
2022-07-27T07:54:35.573Z,27.20
2022-07-27T07:57:02.857Z,27.16
2022-07-27T07:59:30.034Z,27.18
2022-07-27T08:01:57.927Z,27.17
2022-07-27T08:04:25.748Z,27.22
2022-07-27T08:06:53.065Z,27.56
2022-07-27T08:09:21.769Z,27.55
2022-07-27T08:11:49.307Z,27.54
2022-07-27T08:14:16.610Z,27.61
2022-07-27T08:16:43.881Z,27.19
2022-07-27T08:19:16.053Z,27.48
2022-07-27T08:21:43.410Z,27.50
2022-07-27T08:24:11.032Z,27.49
2022-07-27T08:26:38.548Z,27.52
2022-07-27T08:29:11.316Z,27.83
2022-07-27T08:31:51.678Z,28.21
2022-07-27T08:34:19.729Z,28.18
2022-07-27T08:36:47.188Z,28.00
2022-07-27T08:39:32.027Z,28.23
2022-07-27T08:42:04.335Z,28.55
2022-07-27T08:44:31.612Z,28.38
2022-07-27T08:47:00.046Z,28.03
2022-07-27T08:49:41.687Z,28.02
2022-07-27T08:52:11.083Z,28.36
2022-07-27T08:54:39.182Z,28.33
2022-07-27T08:57:07.575Z,27.98
2022-07-27T08:59:34.898Z,28.27
2022-07-27T09:02:03.780Z,27.96
2022-07-27T09:04:31.178Z,28.22
2022-07-27T09:06:58.363Z,28.43
2022-07-27T09:09:25.875Z,28.33
2022-07-27T09:12:04.220Z,28.35
2022-07-27T09:14:32.264Z,28.34
2022-07-27T09:19:59.888Z,28.42
2022-07-27T09:23:03.134Z,28.41
2022-07-27T09:26:01.743Z,28.59
2022-07-27T09:28:29.325Z,28.89
2022-07-27T09:31:05.472Z,28.47
2022-07-27T09:33:34.603Z,28.66
2022-07-27T09:36:02.205Z,28.65
2022-07-27T09:38:29.424Z,28.70
2022-07-27T09:41:03.897Z,28.85
2022-07-27T09:46:32.415Z,28.98
2022-07-27T09:49:00.346Z,29.06
2022-07-27T09:54:15.862Z,28.98
2022-07-27T09:56:43.322Z,29.09
2022-07-27T09:59:11.563Z,29.35
2022-07-27T10:01:47.821Z,29.47
2022-07-27T10:04:18.348Z,29.61
2022-07-27T10:07:01.604Z,29.64
2022-07-27T10:09:30.624Z,29.64
2022-07-27T10:11:58.452Z,29.28
2022-07-27T10:14:25.829Z,29.42
2022-07-27T10:16:53.443Z,29.38
2022-07-27T10:19:20.753Z,29.44
2022-07-27T10:21:48.346Z,29.64
2022-07-27T10:24:27.011Z,29.62
2022-07-27T10:26:54.432Z,29.59
2022-07-27T10:29:22.495Z,29.55
2022-07-27T10:31:53.399Z,29.51
2022-07-27T10:34:37.219Z,29.53
2022-07-27T10:37:12.204Z,29.41
2022-07-27T10:40:24.623Z,29.96
2022-07-27T10:42:54.604Z,30.13
2022-07-27T10:45:22.384Z,29.83
2022-07-27T10:47:52.849Z,30.04
2022-07-27T10:50:21.622Z,30.06
2022-07-27T10:52:56.037Z,30.32
2022-07-27T10:55:30.093Z,30.35
2022-07-27T10:57:58.068Z,30.33
2022-07-27T11:00:46.159Z,30.45
2022-07-27T11:03:22.474Z,30.61
2022-07-27T11:06:14.647Z,30.98
2022-07-27T11:09:01.720Z,31.02
2022-07-27T11:11:35.721Z,31.21
2022-07-27T11:14:02.956Z,31.31
2022-07-27T11:16:30.679Z,31.32
2022-07-27T11:19:05.341Z,31.29
2022-07-27T11:21:36.586Z,31.40
2022-07-27T11:24:11.062Z,31.63
2022-07-27T11:26:39.994Z,31.56
2022-07-27T11:29:08.696Z,31.74
2022-07-27T11:31:54.641Z,31.68
2022-07-27T11:34:27.798Z,31.59
2022-07-27T11:36:55.524Z,31.95
2022-07-27T11:42:17.662Z,32.54
2022-07-27T11:44:46.302Z,32.63
2022-07-27T11:47:17.545Z,32.13
2022-07-27T11:49:44.817Z,31.86
2022-07-27T11:52:12.389Z,32.09
2022-07-27T11:54:40.266Z,32.00
2022-07-27T11:57:08.746Z,32.10
2022-07-27T11:59:36.191Z,32.26
2022-07-27T12:02:07.666Z,32.08
2022-07-27T12:04:38.963Z,32.19
2022-07-27T12:07:08.098Z,32.39
2022-07-27T12:09:38.706Z,32.48
2022-07-27T12:12:16.244Z,31.67
2022-07-27T12:14:54.482Z,31.58
2022-07-27T12:17:26.103Z,31.76
2022-07-27T12:19:54.873Z,32.32
2022-07-27T12:22:27.309Z,32.75
2022-07-27T12:24:55.012Z,33.16
2022-07-27T12:27:22.239Z,33.26
2022-07-27T12:30:00.306Z,33.39
2022-07-27T12:32:28.483Z,33.62
2022-07-27T12:34:55.966Z,33.97
2022-07-27T12:37:23.637Z,34.16
2022-07-27T12:39:53.907Z,34.45
2022-07-27T12:42:21.133Z,34.61
2022-07-27T12:44:48.596Z,34.71
2022-07-27T12:47:34.875Z,34.86
2022-07-27T12:50:03.151Z,35.21
2022-07-27T12:52:31.242Z,35.16
2022-07-27T12:54:58.726Z,35.51
2022-07-27T12:57:54.031Z,35.19
2022-07-27T13:00:15.279Z,34.93
2022-07-27T13:02:42.675Z,35.23
2022-07-27T13:14:52.934Z,35.32
2022-07-27T13:17:20.838Z,35.33
2022-07-27T13:19:48.203Z,34.62
2022-07-27T13:22:15.397Z,34.88
2022-07-27T13:24:42.944Z,34.99
2022-07-27T13:27:10.153Z,34.78
2022-07-27T13:29:37.525Z,34.91
2022-07-27T13:32:27.385Z,35.00
2022-07-27T13:40:48.125Z,35.07
2022-07-27T13:43:16.981Z,34.36
2022-07-27T13:45:44.210Z,34.18
2022-07-27T13:48:12.351Z,35.14
2022-07-27T13:50:39.775Z,35.11
2022-07-27T13:53:07.039Z,35.18
2022-07-27T13:55:35.415Z,35.45
2022-07-27T13:58:02.689Z,35.40
2022-07-27T14:00:29.891Z,35.48
2022-07-27T14:02:57.623Z,35.50
2022-07-27T14:05:24.854Z,35.68
2022-07-27T14:07:54.700Z,35.60
2022-07-27T14:10:41.725Z,35.66
2022-07-27T14:13:10.894Z,35.82
2022-07-27T14:15:50.365Z,35.97
2022-07-27T14:18:25.970Z,35.89
2022-07-27T14:20:54.264Z,35.89
2022-07-27T14:23:21.784Z,35.58
2022-07-27T14:25:50.111Z,35.51
2022-07-27T14:28:17.604Z,34.98
2022-07-27T14:30:45.072Z,34.94
2022-07-27T14:33:12.254Z,34.28
2022-07-27T14:35:40.943Z,34.38
2022-07-27T14:38:08.857Z,34.36
2022-07-27T14:40:36.133Z,34.36
2022-07-27T14:43:03.823Z,34.00
2022-07-27T14:45:44.792Z,33.97
2022-07-27T14:48:21.026Z,34.23
2022-07-27T14:50:52.487Z,34.82
2022-07-27T14:53:20.024Z,34.90
2022-07-27T14:55:47.219Z,35.03
2022-07-27T14:58:14.448Z,34.57
2022-07-27T15:00:41.956Z,34.51
2022-07-27T15:03:09.397Z,34.38
2022-07-27T15:05:49.351Z,34.25
2022-07-27T15:08:19.260Z,34.20
2022-07-27T15:10:47.204Z,34.54
2022-07-27T15:13:14.865Z,34.14
2022-07-27T15:15:42.163Z,34.11
2022-07-27T15:18:09.729Z,34.38
2022-07-27T15:20:36.958Z,34.43
2022-07-27T15:23:04.407Z,34.66
2022-07-27T15:25:33.272Z,34.41
2022-07-27T15:28:00.595Z,34.29
2022-07-27T15:30:27.786Z,34.08
2022-07-27T15:32:55.254Z,33.81
2022-07-27T15:35:22.531Z,34.27
2022-07-27T15:37:54.101Z,34.35
2022-07-27T15:40:37.600Z,33.84
2022-07-27T15:43:05.248Z,33.62
2022-07-27T15:45:32.775Z,33.76
2022-07-27T15:47:59.999Z,33.67
2022-07-27T15:50:27.204Z,33.75
2022-07-27T15:52:54.690Z,33.92
2022-07-27T15:55:21.966Z,33.92
2022-07-27T15:57:49.552Z,34.12
2022-07-27T16:00:17.066Z,34.10
2022-07-27T16:02:45.443Z,33.87
2022-07-27T16:05:12.641Z,33.83
2022-07-27T16:07:40.803Z,33.90
2022-07-27T16:10:09.889Z,33.73
2022-07-27T16:12:38.532Z,33.41
2022-07-27T16:15:06.230Z,33.42
2022-07-27T16:17:33.729Z,33.34
2022-07-27T16:20:01.037Z,32.75
2022-07-27T16:22:29.495Z,33.00
2022-07-27T16:24:57.059Z,32.73
2022-07-27T16:27:24.398Z,32.47
2022-07-27T16:29:51.906Z,32.47
2022-07-27T16:32:19.509Z,32.51
2022-07-27T16:34:47.054Z,32.45
2022-07-27T16:37:14.249Z,32.70
2022-07-27T16:39:41.748Z,32.69
2022-07-27T16:42:09.012Z,32.58
2022-07-27T16:44:38.759Z,32.40
2022-07-27T16:47:07.427Z,32.60
2022-07-27T16:49:54.227Z,32.66
2022-07-27T16:52:22.283Z,32.24
2022-07-27T16:54:49.645Z,32.40
2022-07-27T16:57:17.032Z,32.13
2022-07-27T16:59:44.846Z,31.92
2022-07-27T17:02:12.280Z,31.96
2022-07-27T17:04:39.770Z,31.73
2022-07-27T17:07:12.530Z,31.70
2022-07-27T17:09:40.682Z,31.70
2022-07-27T17:12:09.165Z,31.93
2022-07-27T17:14:36.649Z,31.70
2022-07-27T17:17:04.027Z,31.85
2022-07-27T17:19:31.597Z,31.29
2022-07-27T17:21:59.242Z,31.02
2022-07-27T17:24:26.726Z,30.55
2022-07-27T17:26:54.503Z,30.83
2022-07-27T17:29:21.974Z,30.59
2022-07-27T17:31:49.389Z,30.44
2022-07-27T17:34:17.180Z,30.28
2022-07-27T17:36:44.597Z,30.15
2022-07-27T17:39:12.210Z,30.08
2022-07-27T17:41:40.196Z,30.11
2022-07-27T17:44:07.545Z,30.17
2022-07-27T17:46:38.823Z,29.73
2022-07-27T17:49:07.142Z,29.63
2022-07-27T17:51:43.895Z,29.60
2022-07-27T17:54:11.528Z,29.59
2022-07-27T17:56:38.823Z,29.36
2022-07-27T17:59:34.518Z,29.55
2022-07-27T18:01:56.644Z,29.34
2022-07-27T18:04:25.498Z,29.17
2022-07-27T18:06:52.907Z,29.42
2022-07-27T18:09:20.194Z,29.42
2022-07-27T18:15:04.354Z,28.91
2022-07-27T18:17:32.543Z,28.84
2022-07-27T18:20:01.131Z,28.74
2022-07-27T18:22:36.672Z,28.80
2022-07-27T18:25:13.466Z,28.99
2022-07-27T18:27:45.403Z,28.94
2022-07-27T18:30:14.109Z,28.37
2022-07-27T18:32:43.057Z,28.47
2022-07-27T18:35:14.156Z,28.46
2022-07-27T18:37:42.694Z,28.65
2022-07-27T18:40:11.259Z,28.47
2022-07-27T18:42:39.832Z,28.56
2022-07-27T18:45:09.020Z,28.37
2022-07-27T18:47:39.569Z,28.40
2022-07-27T18:50:08.120Z,28.08
2022-07-27T18:52:35.907Z,27.57
2022-07-27T18:55:04.074Z,27.62
2022-07-27T18:57:33.883Z,27.82
2022-07-27T19:00:01.705Z,27.41
2022-07-27T19:02:38.746Z,27.49
2022-07-27T19:05:10.343Z,27.91
2022-07-27T19:07:42.512Z,27.77
2022-07-27T19:10:12.132Z,27.32
2022-07-27T19:12:46.094Z,27.60
2022-07-27T19:15:15.975Z,27.42
2022-07-27T19:17:48.036Z,27.46
2022-07-27T19:20:16.595Z,27.31
2022-07-27T19:22:48.333Z,27.49
2022-07-27T19:25:16.325Z,27.37
2022-07-27T19:27:44.217Z,27.41
2022-07-27T19:30:12.679Z,27.34
2022-07-27T19:32:41.074Z,26.95
2022-07-27T19:35:09.570Z,27.06
2022-07-27T19:37:40.065Z,26.97
2022-07-27T19:40:33.311Z,26.65
2022-07-27T19:42:59.111Z,26.81
2022-07-27T19:45:27.306Z,26.59
2022-07-27T19:47:55.066Z,26.76
2022-07-27T19:50:28.139Z,26.69
2022-07-27T19:52:55.957Z,26.44
2022-07-27T19:55:25.865Z,26.58
2022-07-27T19:57:54.301Z,26.85
2022-07-27T20:00:23.214Z,26.62
2022-07-27T20:02:51.248Z,25.96
2022-07-27T20:05:19.052Z,26.38
2022-07-27T20:07:46.940Z,26.27
2022-07-27T20:10:15.833Z,26.07
2022-07-27T20:12:43.560Z,26.13
2022-07-27T20:15:12.503Z,26.02
2022-07-27T20:17:40.946Z,25.92
2022-07-27T20:20:10.373Z,25.71
2022-07-27T20:22:42.083Z,25.67
2022-07-27T20:25:11.388Z,25.77
2022-07-27T20:27:39.990Z,25.85
2022-07-27T20:30:08.751Z,25.62
2022-07-27T20:32:42.042Z,25.51
2022-07-27T20:35:09.656Z,25.25
2022-07-27T20:37:40.235Z,25.59
2022-07-27T20:40:13.594Z,25.62
2022-07-27T20:42:42.167Z,25.74
2022-07-27T20:45:11.661Z,25.79
2022-07-27T20:47:39.581Z,25.72
2022-07-27T20:50:08.479Z,25.83
2022-07-27T20:52:37.179Z,25.55
2022-07-27T20:55:06.188Z,25.82
2022-07-27T20:57:35.258Z,25.60
2022-07-27T21:00:04.934Z,25.64
2022-07-27T21:02:33.747Z,25.95
2022-07-27T21:05:02.736Z,25.88
2022-07-27T21:07:31.142Z,25.85
2022-07-27T21:09:59.365Z,25.59
2022-07-27T21:12:28.682Z,25.44
2022-07-27T21:14:57.107Z,25.59
2022-07-27T21:17:25.030Z,25.52
2022-07-27T21:19:54.177Z,25.46
2022-07-27T21:22:22.122Z,25.24
2022-07-27T21:24:50.116Z,24.98
2022-07-27T21:27:21.068Z,24.64
2022-07-27T21:29:53.344Z,24.59
2022-07-27T21:32:21.324Z,24.56
2022-07-27T21:34:48.792Z,24.73
2022-07-27T21:37:19.220Z,24.93
2022-07-27T21:39:47.274Z,24.67
2022-07-27T21:42:15.309Z,24.56
2022-07-27T21:44:43.389Z,24.73
2022-07-27T21:47:14.219Z,24.71
2022-07-27T21:49:42.603Z,24.65
2022-07-27T21:52:11.598Z,24.84
2022-07-27T21:54:40.031Z,25.07
2022-07-27T21:57:14.017Z,25.07
2022-07-27T21:59:42.228Z,24.98
2022-07-27T22:02:10.484Z,25.28
2022-07-27T22:04:38.679Z,25.14
2022-07-27T22:07:07.107Z,25.14
2022-07-27T22:09:47.066Z,25.01
2022-07-27T22:12:15.212Z,24.98
2022-07-27T22:14:43.649Z,25.33
2022-07-27T22:17:15.019Z,25.65
2022-07-27T22:19:42.909Z,25.67
2022-07-27T22:22:14.351Z,25.84
2022-07-27T22:24:42.641Z,26.00
2022-07-27T22:27:09.937Z,25.80
2022-07-27T22:29:37.404Z,25.76
2022-07-27T22:32:05.218Z,25.78
2022-07-27T22:34:32.776Z,26.09
2022-07-27T22:37:00.532Z,25.96
2022-07-27T22:39:28.201Z,25.83
2022-07-27T22:41:55.876Z,25.99
2022-07-27T22:44:23.437Z,26.00
2022-07-27T22:46:51.130Z,25.99
2022-07-27T22:49:22.740Z,26.05
2022-07-27T22:51:52.919Z,26.03
2022-07-27T22:54:22.250Z,26.31
2022-07-27T22:56:49.747Z,26.13
2022-07-27T22:59:17.001Z,25.89
2022-07-27T23:01:47.537Z,25.67
2022-07-27T23:04:18.717Z,25.27
2022-07-27T23:06:46.703Z,25.23
2022-07-27T23:09:14.538Z,25.41
2022-07-27T23:11:42.167Z,25.38
2022-07-27T23:14:09.994Z,25.36
2022-07-27T23:16:39.854Z,25.71
2022-07-27T23:19:07.217Z,25.86
2022-07-27T23:21:35.038Z,25.94
2022-07-27T23:24:04.960Z,25.88
2022-07-27T23:26:32.634Z,25.94
2022-07-27T23:29:01.154Z,26.03
2022-07-27T23:31:28.787Z,26.17
2022-07-27T23:33:57.505Z,26.01
2022-07-27T23:36:25.138Z,26.02
2022-07-27T23:38:52.555Z,25.72
2022-07-27T23:41:19.918Z,25.87
2022-07-27T23:43:47.461Z,25.74
2022-07-27T23:46:14.834Z,25.97
2022-07-27T23:48:42.278Z,25.52
2022-07-27T23:51:15.264Z,25.91
2022-07-27T23:53:42.517Z,25.75
2022-07-27T23:56:10.051Z,25.87
2022-07-27T23:58:37.324Z,25.65
